sensor_id;sensor_type;location;lat;lon;timestamp;P1;durP1;ratioP1;P2;durP2;ratioP2
15240;SDS011;7723;52.170;9.978;2023-09-08T00:01:11;6.70;;;4.97;;
15240;SDS011;7723;52.170;9.978;2023-09-08T00:03:38;7.90;;;4.43;;
15240;SDS011;7723;52.170;9.978;2023-09-08T00:06:05;7.88;;;5.13;;
15240;SDS011;7723;52.170;9.978;2023-09-08T00:08:32;7.68;;;4.53;;
15240;SDS011;7723;52.170;9.978;2023-09-08T00:11:02;7.35;;;4.70;;
15240;SDS011;7723;52.170;9.978;2023-09-08T00:13:31;5.20;;;4.70;;
15240;SDS011;7723;52.170;9.978;2023-09-08T00:16:00;7.45;;;6.07;;
15240;SDS011;7723;52.170;9.978;2023-09-08T00:18:27;6.63;;;5.10;;
15240;SDS011;7723;52.170;9.978;2023-09-08T00:20:54;5.40;;;4.90;;
15240;SDS011;7723;52.170;9.978;2023-09-08T00:23:21;6.38;;;5.07;;
15240;SDS011;7723;52.170;9.978;2023-09-08T00:25:49;5.82;;;4.60;;
15240;SDS011;7723;52.170;9.978;2023-09-08T00:28:16;7.40;;;4.50;;
15240;SDS011;7723;52.170;9.978;2023-09-08T00:30:43;6.57;;;5.07;;
15240;SDS011;7723;52.170;9.978;2023-09-08T00:33:11;5.35;;;4.47;;
15240;SDS011;7723;52.170;9.978;2023-09-08T00:35:38;7.90;;;5.10;;
15240;SDS011;7723;52.170;9.978;2023-09-08T00:38:06;8.02;;;5.53;;
15240;SDS011;7723;52.170;9.978;2023-09-08T00:40:33;6.75;;;4.80;;
15240;SDS011;7723;52.170;9.978;2023-09-08T00:43:00;7.20;;;4.75;;
15240;SDS011;7723;52.170;9.978;2023-09-08T00:45:28;7.80;;;5.55;;
15240;SDS011;7723;52.170;9.978;2023-09-08T00:47:56;7.95;;;5.05;;
15240;SDS011;7723;52.170;9.978;2023-09-08T00:50:24;5.43;;;4.93;;
15240;SDS011;7723;52.170;9.978;2023-09-08T00:52:51;5.80;;;4.50;;
15240;SDS011;7723;52.170;9.978;2023-09-08T00:55:19;6.60;;;5.28;;
15240;SDS011;7723;52.170;9.978;2023-09-08T00:57:46;6.85;;;5.10;;
15240;SDS011;7723;52.170;9.978;2023-09-08T01:00:13;6.05;;;5.40;;
15240;SDS011;7723;52.170;9.978;2023-09-08T01:02:42;7.40;;;5.28;;
15240;SDS011;7723;52.170;9.978;2023-09-08T01:05:12;5.75;;;5.13;;
15240;SDS011;7723;52.170;9.978;2023-09-08T01:07:41;6.90;;;5.30;;
15240;SDS011;7723;52.170;9.978;2023-09-08T01:10:10;6.90;;;5.10;;
15240;SDS011;7723;52.170;9.978;2023-09-08T01:12:40;8.57;;;5.45;;
15240;SDS011;7723;52.170;9.978;2023-09-08T01:15:08;6.15;;;5.22;;
15240;SDS011;7723;52.170;9.978;2023-09-08T01:17:36;6.85;;;5.55;;
15240;SDS011;7723;52.170;9.978;2023-09-08T01:20:04;6.85;;;5.57;;
15240;SDS011;7723;52.170;9.978;2023-09-08T01:22:49;8.82;;;5.72;;
15240;SDS011;7723;52.170;9.978;2023-09-08T01:25:28;7.35;;;5.60;;
15240;SDS011;7723;52.170;9.978;2023-09-08T01:27:58;9.60;;;6.47;;
15240;SDS011;7723;52.170;9.978;2023-09-08T01:30:29;6.75;;;5.90;;
15240;SDS011;7723;52.170;9.978;2023-09-08T01:32:58;6.80;;;5.53;;
15240;SDS011;7723;52.170;9.978;2023-09-08T01:35:25;7.75;;;6.25;;
15240;SDS011;7723;52.170;9.978;2023-09-08T01:37:53;7.95;;;5.70;;
15240;SDS011;7723;52.170;9.978;2023-09-08T01:40:20;7.38;;;5.90;;
15240;SDS011;7723;52.170;9.978;2023-09-08T01:42:49;8.55;;;6.32;;
15240;SDS011;7723;52.170;9.978;2023-09-08T01:45:17;9.70;;;5.97;;
15240;SDS011;7723;52.170;9.978;2023-09-08T01:47:45;7.07;;;6.38;;
15240;SDS011;7723;52.170;9.978;2023-09-08T01:50:12;9.43;;;6.30;;
15240;SDS011;7723;52.170;9.978;2023-09-08T01:52:40;8.00;;;6.00;;
15240;SDS011;7723;52.170;9.978;2023-09-08T01:55:07;11.75;;;7.18;;
15240;SDS011;7723;52.170;9.978;2023-09-08T01:57:37;7.07;;;6.03;;
15240;SDS011;7723;52.170;9.978;2023-09-08T02:00:06;7.97;;;5.88;;
15240;SDS011;7723;52.170;9.978;2023-09-08T02:02:34;7.90;;;6.68;;
15240;SDS011;7723;52.170;9.978;2023-09-08T02:05:01;8.05;;;6.30;;
15240;SDS011;7723;52.170;9.978;2023-09-08T02:07:28;7.65;;;6.47;;
15240;SDS011;7723;52.170;9.978;2023-09-08T02:09:56;8.25;;;6.70;;
15240;SDS011;7723;52.170;9.978;2023-09-08T02:12:23;8.65;;;6.80;;
15240;SDS011;7723;52.170;9.978;2023-09-08T02:14:50;8.70;;;6.53;;
15240;SDS011;7723;52.170;9.978;2023-09-08T02:17:19;7.10;;;6.10;;
15240;SDS011;7723;52.170;9.978;2023-09-08T02:19:46;8.57;;;6.93;;
15240;SDS011;7723;52.170;9.978;2023-09-08T02:22:13;9.35;;;6.97;;
15240;SDS011;7723;52.170;9.978;2023-09-08T02:24:40;8.15;;;6.82;;
15240;SDS011;7723;52.170;9.978;2023-09-08T02:27:07;7.70;;;6.32;;
15240;SDS011;7723;52.170;9.978;2023-09-08T02:29:34;10.05;;;7.20;;
15240;SDS011;7723;52.170;9.978;2023-09-08T02:32:02;8.80;;;6.53;;
15240;SDS011;7723;52.170;9.978;2023-09-08T02:34:29;7.68;;;6.88;;
15240;SDS011;7723;52.170;9.978;2023-09-08T02:37:01;8.93;;;6.82;;
15240;SDS011;7723;52.170;9.978;2023-09-08T02:39:29;8.32;;;6.47;;
15240;SDS011;7723;52.170;9.978;2023-09-08T02:41:56;8.32;;;6.60;;
15240;SDS011;7723;52.170;9.978;2023-09-08T02:44:23;11.25;;;7.93;;
15240;SDS011;7723;52.170;9.978;2023-09-08T02:46:50;9.45;;;6.95;;
15240;SDS011;7723;52.170;9.978;2023-09-08T02:49:17;9.60;;;6.60;;
15240;SDS011;7723;52.170;9.978;2023-09-08T02:51:46;9.57;;;6.78;;
15240;SDS011;7723;52.170;9.978;2023-09-08T02:54:13;10.85;;;6.90;;
15240;SDS011;7723;52.170;9.978;2023-09-08T02:56:40;8.90;;;6.93;;
15240;SDS011;7723;52.170;9.978;2023-09-08T02:59:07;12.88;;;7.18;;
15240;SDS011;7723;52.170;9.978;2023-09-08T03:01:34;8.23;;;6.93;;
15240;SDS011;7723;52.170;9.978;2023-09-08T03:04:01;10.75;;;7.30;;
15240;SDS011;7723;52.170;9.978;2023-09-08T03:06:29;9.02;;;6.72;;
15240;SDS011;7723;52.170;9.978;2023-09-08T03:08:57;9.05;;;7.03;;
15240;SDS011;7723;52.170;9.978;2023-09-08T03:11:25;9.73;;;6.43;;
15240;SDS011;7723;52.170;9.978;2023-09-08T03:13:52;16.15;;;7.97;;
15240;SDS011;7723;52.170;9.978;2023-09-08T03:16:19;8.20;;;7.05;;
15240;SDS011;7723;52.170;9.978;2023-09-08T03:18:46;10.77;;;7.22;;
15240;SDS011;7723;52.170;9.978;2023-09-08T03:21:13;8.65;;;6.60;;
15240;SDS011;7723;52.170;9.978;2023-09-08T03:23:41;9.35;;;7.05;;
15240;SDS011;7723;52.170;9.978;2023-09-08T03:26:10;7.78;;;6.70;;
15240;SDS011;7723;52.170;9.978;2023-09-08T03:28:38;9.80;;;6.88;;
15240;SDS011;7723;52.170;9.978;2023-09-08T03:31:06;7.93;;;6.30;;
15240;SDS011;7723;52.170;9.978;2023-09-08T03:33:33;7.43;;;6.32;;
15240;SDS011;7723;52.170;9.978;2023-09-08T03:36:01;7.80;;;6.85;;
15240;SDS011;7723;52.170;9.978;2023-09-08T03:38:28;9.88;;;7.68;;
15240;SDS011;7723;52.170;9.978;2023-09-08T03:40:55;8.68;;;7.35;;
15240;SDS011;7723;52.170;9.978;2023-09-08T03:43:24;8.27;;;6.60;;
15240;SDS011;7723;52.170;9.978;2023-09-08T03:45:51;9.98;;;7.60;;
15240;SDS011;7723;52.170;9.978;2023-09-08T03:48:18;12.30;;;7.40;;
15240;SDS011;7723;52.170;9.978;2023-09-08T03:50:45;9.38;;;7.53;;
15240;SDS011;7723;52.170;9.978;2023-09-08T03:53:13;8.55;;;6.80;;
15240;SDS011;7723;52.170;9.978;2023-09-08T03:55:40;10.00;;;7.50;;
15240;SDS011;7723;52.170;9.978;2023-09-08T03:58:07;9.32;;;7.70;;
15240;SDS011;7723;52.170;9.978;2023-09-08T04:00:36;13.05;;;7.75;;
15240;SDS011;7723;52.170;9.978;2023-09-08T04:03:03;12.60;;;7.68;;
15240;SDS011;7723;52.170;9.978;2023-09-08T04:05:30;11.98;;;7.45;;
15240;SDS011;7723;52.170;9.978;2023-09-08T04:07:57;15.10;;;8.00;;
15240;SDS011;7723;52.170;9.978;2023-09-08T04:10:24;11.75;;;7.45;;
15240;SDS011;7723;52.170;9.978;2023-09-08T04:12:52;10.30;;;8.20;;
15240;SDS011;7723;52.170;9.978;2023-09-08T04:15:19;12.65;;;7.95;;
15240;SDS011;7723;52.170;9.978;2023-09-08T04:17:48;13.18;;;8.27;;
15240;SDS011;7723;52.170;9.978;2023-09-08T04:20:15;11.50;;;7.63;;
15240;SDS011;7723;52.170;9.978;2023-09-08T04:22:42;13.15;;;8.00;;
15240;SDS011;7723;52.170;9.978;2023-09-08T04:25:09;13.02;;;8.43;;
15240;SDS011;7723;52.170;9.978;2023-09-08T04:27:36;21.33;;;8.00;;
15240;SDS011;7723;52.170;9.978;2023-09-08T04:30:05;35.55;;;9.73;;
15240;SDS011;7723;52.170;9.978;2023-09-08T04:32:33;39.45;;;10.00;;
15240;SDS011;7723;52.170;9.978;2023-09-08T04:35:01;31.55;;;9.15;;
15240;SDS011;7723;52.170;9.978;2023-09-08T04:37:29;23.20;;;8.63;;
15240;SDS011;7723;52.170;9.978;2023-09-08T04:39:56;23.35;;;8.43;;
15240;SDS011;7723;52.170;9.978;2023-09-08T04:42:23;32.70;;;8.80;;
15240;SDS011;7723;52.170;9.978;2023-09-08T04:44:50;18.27;;;7.95;;
15240;SDS011;7723;52.170;9.978;2023-09-08T04:47:18;14.77;;;8.73;;
15240;SDS011;7723;52.170;9.978;2023-09-08T04:49:45;20.40;;;8.60;;
15240;SDS011;7723;52.170;9.978;2023-09-08T04:52:14;15.02;;;8.27;;
15240;SDS011;7723;52.170;9.978;2023-09-08T04:54:41;12.73;;;8.43;;
15240;SDS011;7723;52.170;9.978;2023-09-08T04:57:08;22.20;;;9.05;;
15240;SDS011;7723;52.170;9.978;2023-09-08T04:59:35;24.17;;;10.20;;
15240;SDS011;7723;52.170;9.978;2023-09-08T05:02:04;15.48;;;9.38;;
15240;SDS011;7723;52.170;9.978;2023-09-08T05:04:31;19.70;;;10.27;;
15240;SDS011;7723;52.170;9.978;2023-09-08T05:06:58;18.52;;;8.90;;
15240;SDS011;7723;52.170;9.978;2023-09-08T05:09:26;29.52;;;10.98;;
15240;SDS011;7723;52.170;9.978;2023-09-08T05:11:53;28.55;;;9.90;;
15240;SDS011;7723;52.170;9.978;2023-09-08T05:14:20;19.42;;;8.93;;
15240;SDS011;7723;52.170;9.978;2023-09-08T05:16:49;19.42;;;9.65;;
15240;SDS011;7723;52.170;9.978;2023-09-08T05:19:20;23.77;;;9.75;;
15240;SDS011;7723;52.170;9.978;2023-09-08T05:21:49;19.05;;;9.65;;
15240;SDS011;7723;52.170;9.978;2023-09-08T05:24:17;22.08;;;9.43;;
15240;SDS011;7723;52.170;9.978;2023-09-08T05:26:47;17.35;;;8.95;;
15240;SDS011;7723;52.170;9.978;2023-09-08T05:29:14;20.83;;;9.32;;
15240;SDS011;7723;52.170;9.978;2023-09-08T05:31:41;15.35;;;9.02;;
15240;SDS011;7723;52.170;9.978;2023-09-08T05:34:08;13.25;;;8.32;;
15240;SDS011;7723;52.170;9.978;2023-09-08T05:36:35;10.63;;;7.43;;
15240;SDS011;7723;52.170;9.978;2023-09-08T05:39:05;14.45;;;8.40;;
15240;SDS011;7723;52.170;9.978;2023-09-08T05:41:32;13.68;;;7.75;;
15240;SDS011;7723;52.170;9.978;2023-09-08T05:44:01;14.25;;;8.07;;
15240;SDS011;7723;52.170;9.978;2023-09-08T05:46:28;15.07;;;8.18;;
15240;SDS011;7723;52.170;9.978;2023-09-08T05:48:55;14.32;;;8.35;;
15240;SDS011;7723;52.170;9.978;2023-09-08T05:51:22;13.98;;;7.55;;
15240;SDS011;7723;52.170;9.978;2023-09-08T05:53:50;17.63;;;9.25;;
15240;SDS011;7723;52.170;9.978;2023-09-08T05:56:18;14.57;;;8.57;;
15240;SDS011;7723;52.170;9.978;2023-09-08T05:58:46;16.27;;;8.68;;
15240;SDS011;7723;52.170;9.978;2023-09-08T06:01:14;16.75;;;8.13;;
15240;SDS011;7723;52.170;9.978;2023-09-08T06:03:42;21.20;;;9.23;;
15240;SDS011;7723;52.170;9.978;2023-09-08T06:06:09;25.17;;;8.95;;
15240;SDS011;7723;52.170;9.978;2023-09-08T06:08:36;31.80;;;9.60;;
15240;SDS011;7723;52.170;9.978;2023-09-08T06:11:04;17.27;;;8.23;;
15240;SDS011;7723;52.170;9.978;2023-09-08T06:13:31;13.52;;;8.48;;
15240;SDS011;7723;52.170;9.978;2023-09-08T06:15:58;13.90;;;7.70;;
15240;SDS011;7723;52.170;9.978;2023-09-08T06:18:27;13.45;;;7.25;;
15240;SDS011;7723;52.170;9.978;2023-09-08T06:20:56;26.40;;;7.72;;
15240;SDS011;7723;52.170;9.978;2023-09-08T06:23:23;12.98;;;7.35;;
15240;SDS011;7723;52.170;9.978;2023-09-08T06:25:50;11.65;;;7.07;;
15240;SDS011;7723;52.170;9.978;2023-09-08T06:28:17;8.15;;;6.20;;
15240;SDS011;7723;52.170;9.978;2023-09-08T06:30:44;8.38;;;6.32;;
15240;SDS011;7723;52.170;9.978;2023-09-08T06:33:11;7.80;;;7.00;;
15240;SDS011;7723;52.170;9.978;2023-09-08T06:35:40;8.55;;;5.72;;
15240;SDS011;7723;52.170;9.978;2023-09-08T06:38:07;7.05;;;5.20;;
15240;SDS011;7723;52.170;9.978;2023-09-08T06:40:34;9.15;;;6.60;;
15240;SDS011;7723;52.170;9.978;2023-09-08T06:43:01;9.38;;;7.13;;
15240;SDS011;7723;52.170;9.978;2023-09-08T06:45:28;7.50;;;5.75;;
15240;SDS011;7723;52.170;9.978;2023-09-08T06:47:56;10.23;;;6.20;;
15240;SDS011;7723;52.170;9.978;2023-09-08T06:50:25;10.90;;;6.07;;
15240;SDS011;7723;52.170;9.978;2023-09-08T06:52:55;9.68;;;6.55;;
15240;SDS011;7723;52.170;9.978;2023-09-08T06:55:22;7.55;;;6.22;;
15240;SDS011;7723;52.170;9.978;2023-09-08T06:57:49;13.32;;;6.53;;
15240;SDS011;7723;52.170;9.978;2023-09-08T07:00:17;10.23;;;7.43;;
15240;SDS011;7723;52.170;9.978;2023-09-08T07:02:47;18.48;;;7.63;;
15240;SDS011;7723;52.170;9.978;2023-09-08T07:05:15;13.05;;;7.72;;
15240;SDS011;7723;52.170;9.978;2023-09-08T07:07:43;9.93;;;7.20;;
15240;SDS011;7723;52.170;9.978;2023-09-08T07:10:12;12.20;;;7.55;;
15240;SDS011;7723;52.170;9.978;2023-09-08T07:12:39;10.77;;;7.22;;
15240;SDS011;7723;52.170;9.978;2023-09-08T07:15:06;14.45;;;7.75;;
15240;SDS011;7723;52.170;9.978;2023-09-08T07:17:34;12.88;;;7.93;;
15240;SDS011;7723;52.170;9.978;2023-09-08T07:20:02;15.52;;;7.60;;
15240;SDS011;7723;52.170;9.978;2023-09-08T07:22:30;11.65;;;7.55;;
15240;SDS011;7723;52.170;9.978;2023-09-08T07:24:57;10.13;;;7.28;;
15240;SDS011;7723;52.170;9.978;2023-09-08T07:27:25;19.92;;;7.18;;
15240;SDS011;7723;52.170;9.978;2023-09-08T07:29:52;11.32;;;7.03;;
15240;SDS011;7723;52.170;9.978;2023-09-08T07:32:19;11.68;;;7.03;;
15240;SDS011;7723;52.170;9.978;2023-09-08T07:34:47;9.35;;;5.80;;
15240;SDS011;7723;52.170;9.978;2023-09-08T07:37:19;9.85;;;5.55;;
15240;SDS011;7723;52.170;9.978;2023-09-08T07:39:47;17.17;;;5.68;;
15240;SDS011;7723;52.170;9.978;2023-09-08T07:42:14;12.88;;;5.47;;
15240;SDS011;7723;52.170;9.978;2023-09-08T07:44:43;7.32;;;5.38;;
15240;SDS011;7723;52.170;9.978;2023-09-08T07:47:10;9.43;;;5.13;;
15240;SDS011;7723;52.170;9.978;2023-09-08T07:49:39;6.05;;;4.40;;
15240;SDS011;7723;52.170;9.978;2023-09-08T07:52:13;6.75;;;4.80;;
15240;SDS011;7723;52.170;9.978;2023-09-08T07:54:41;5.55;;;5.05;;
15240;SDS011;7723;52.170;9.978;2023-09-08T07:57:08;5.50;;;4.75;;
15240;SDS011;7723;52.170;9.978;2023-09-08T07:59:35;6.78;;;4.85;;
15240;SDS011;7723;52.170;9.978;2023-09-08T08:02:03;6.47;;;4.43;;
15240;SDS011;7723;52.170;9.978;2023-09-08T08:04:30;5.10;;;4.60;;
15240;SDS011;7723;52.170;9.978;2023-09-08T08:06:58;7.00;;;4.28;;
15240;SDS011;7723;52.170;9.978;2023-09-08T08:09:25;7.95;;;4.93;;
15240;SDS011;7723;52.170;9.978;2023-09-08T08:11:52;4.38;;;3.97;;
15240;SDS011;7723;52.170;9.978;2023-09-08T08:14:19;5.95;;;4.75;;
15240;SDS011;7723;52.170;9.978;2023-09-08T08:16:46;5.38;;;4.05;;
15240;SDS011;7723;52.170;9.978;2023-09-08T08:19:15;4.65;;;4.22;;
15240;SDS011;7723;52.170;9.978;2023-09-08T08:21:42;5.43;;;4.43;;
15240;SDS011;7723;52.170;9.978;2023-09-08T08:24:09;7.18;;;3.83;;
15240;SDS011;7723;52.170;9.978;2023-09-08T08:26:36;5.28;;;4.28;;
15240;SDS011;7723;52.170;9.978;2023-09-08T08:29:03;5.32;;;4.00;;
15240;SDS011;7723;52.170;9.978;2023-09-08T08:31:30;7.03;;;4.22;;
15240;SDS011;7723;52.170;9.978;2023-09-08T08:33:58;5.60;;;4.60;;
15240;SDS011;7723;52.170;9.978;2023-09-08T08:36:26;5.88;;;4.32;;
15240;SDS011;7723;52.170;9.978;2023-09-08T08:38:54;4.78;;;4.32;;
15240;SDS011;7723;52.170;9.978;2023-09-08T08:41:21;5.88;;;4.18;;
15240;SDS011;7723;52.170;9.978;2023-09-08T08:43:48;4.50;;;4.10;;
15240;SDS011;7723;52.170;9.978;2023-09-08T08:46:16;4.60;;;4.20;;
15240;SDS011;7723;52.170;9.978;2023-09-08T08:48:45;5.78;;;3.92;;
15240;SDS011;7723;52.170;9.978;2023-09-08T08:51:14;12.93;;;5.03;;
15240;SDS011;7723;52.170;9.978;2023-09-08T08:53:45;5.07;;;4.57;;
15240;SDS011;7723;52.170;9.978;2023-09-08T08:56:12;4.95;;;3.88;;
15240;SDS011;7723;52.170;9.978;2023-09-08T08:58:39;5.50;;;3.70;;
15240;SDS011;7723;52.170;9.978;2023-09-08T09:01:11;4.28;;;3.88;;
15240;SDS011;7723;52.170;9.978;2023-09-08T09:03:38;4.65;;;4.25;;
15240;SDS011;7723;52.170;9.978;2023-09-08T09:06:06;6.93;;;4.65;;
15240;SDS011;7723;52.170;9.978;2023-09-08T09:08:33;5.47;;;3.90;;
15240;SDS011;7723;52.170;9.978;2023-09-08T09:11:03;4.70;;;4.30;;
15240;SDS011;7723;52.170;9.978;2023-09-08T09:13:30;6.43;;;4.03;;
15240;SDS011;7723;52.170;9.978;2023-09-08T09:15:58;4.28;;;3.88;;
15240;SDS011;7723;52.170;9.978;2023-09-08T09:18:28;4.90;;;3.97;;
15240;SDS011;7723;52.170;9.978;2023-09-08T09:20:57;5.70;;;4.60;;
15240;SDS011;7723;52.170;9.978;2023-09-08T09:23:28;4.38;;;3.97;;
15240;SDS011;7723;52.170;9.978;2023-09-08T09:25:56;6.88;;;4.35;;
15240;SDS011;7723;52.170;9.978;2023-09-08T09:28:25;5.43;;;4.45;;
15240;SDS011;7723;52.170;9.978;2023-09-08T09:30:54;5.05;;;4.40;;
15240;SDS011;7723;52.170;9.978;2023-09-08T09:33:22;5.15;;;3.97;;
15240;SDS011;7723;52.170;9.978;2023-09-08T09:35:50;4.18;;;3.63;;
15240;SDS011;7723;52.170;9.978;2023-09-08T09:38:18;5.30;;;3.97;;
15240;SDS011;7723;52.170;9.978;2023-09-08T09:40:45;4.63;;;4.13;;
15240;SDS011;7723;52.170;9.978;2023-09-08T09:43:15;6.15;;;4.22;;
15240;SDS011;7723;52.170;9.978;2023-09-08T09:45:44;4.10;;;3.70;;
15240;SDS011;7723;52.170;9.978;2023-09-08T09:48:11;3.83;;;3.53;;
15240;SDS011;7723;52.170;9.978;2023-09-08T09:50:39;4.32;;;3.80;;
15240;SDS011;7723;52.170;9.978;2023-09-08T09:53:08;4.00;;;3.60;;
15240;SDS011;7723;52.170;9.978;2023-09-08T09:55:38;3.92;;;3.63;;
15240;SDS011;7723;52.170;9.978;2023-09-08T09:58:06;4.70;;;3.97;;
15240;SDS011;7723;52.170;9.978;2023-09-08T10:00:35;4.93;;;3.42;;
15240;SDS011;7723;52.170;9.978;2023-09-08T10:03:04;5.18;;;3.92;;
15240;SDS011;7723;52.170;9.978;2023-09-08T10:05:32;5.57;;;3.90;;
15240;SDS011;7723;52.170;9.978;2023-09-08T10:07:59;3.67;;;3.38;;
15240;SDS011;7723;52.170;9.978;2023-09-08T10:10:27;4.13;;;3.72;;
15240;SDS011;7723;52.170;9.978;2023-09-08T10:12:57;4.10;;;3.70;;
15240;SDS011;7723;52.170;9.978;2023-09-08T10:15:28;5.15;;;3.90;;
15240;SDS011;7723;52.170;9.978;2023-09-08T10:17:58;3.80;;;3.50;;
15240;SDS011;7723;52.170;9.978;2023-09-08T10:20:31;4.00;;;3.58;;
15240;SDS011;7723;52.170;9.978;2023-09-08T10:23:02;4.05;;;3.65;;
15240;SDS011;7723;52.170;9.978;2023-09-08T10:25:35;5.40;;;3.65;;
15240;SDS011;7723;52.170;9.978;2023-09-08T10:28:09;6.72;;;3.70;;
15240;SDS011;7723;52.170;9.978;2023-09-08T10:30:36;4.60;;;3.60;;
15240;SDS011;7723;52.170;9.978;2023-09-08T10:33:04;5.32;;;3.90;;
15240;SDS011;7723;52.170;9.978;2023-09-08T10:35:34;4.53;;;3.50;;
15240;SDS011;7723;52.170;9.978;2023-09-08T10:40:48;5.35;;;3.72;;
15240;SDS011;7723;52.170;9.978;2023-09-08T10:43:15;4.57;;;3.97;;
15240;SDS011;7723;52.170;9.978;2023-09-08T10:45:42;5.60;;;3.97;;
15240;SDS011;7723;52.170;9.978;2023-09-08T10:48:10;4.45;;;3.58;;
15240;SDS011;7723;52.170;9.978;2023-09-08T10:50:40;3.88;;;3.58;;
15240;SDS011;7723;52.170;9.978;2023-09-08T10:53:09;6.18;;;4.20;;
15240;SDS011;7723;52.170;9.978;2023-09-08T10:55:39;5.93;;;4.15;;
15240;SDS011;7723;52.170;9.978;2023-09-08T10:58:09;4.13;;;3.80;;
15240;SDS011;7723;52.170;9.978;2023-09-08T11:00:42;4.60;;;3.90;;
15240;SDS011;7723;52.170;9.978;2023-09-08T11:03:11;4.88;;;4.40;;
15240;SDS011;7723;52.170;9.978;2023-09-08T11:05:40;32.17;;;5.82;;
15240;SDS011;7723;52.170;9.978;2023-09-08T11:08:09;14.57;;;4.95;;
15240;SDS011;7723;52.170;9.978;2023-09-08T11:10:37;6.43;;;3.90;;
15240;SDS011;7723;52.170;9.978;2023-09-08T11:13:06;8.27;;;3.50;;
15240;SDS011;7723;52.170;9.978;2023-09-08T11:15:33;4.93;;;3.53;;
15240;SDS011;7723;52.170;9.978;2023-09-08T11:18:07;7.78;;;4.18;;
15240;SDS011;7723;52.170;9.978;2023-09-08T11:20:34;9.02;;;4.50;;
15240;SDS011;7723;52.170;9.978;2023-09-08T11:23:03;5.88;;;3.58;;
15240;SDS011;7723;52.170;9.978;2023-09-08T11:25:31;6.57;;;3.83;;
15240;SDS011;7723;52.170;9.978;2023-09-08T11:27:59;4.40;;;3.80;;
15240;SDS011;7723;52.170;9.978;2023-09-08T11:30:27;4.25;;;3.55;;
15240;SDS011;7723;52.170;9.978;2023-09-08T11:32:54;4.20;;;3.75;;
15240;SDS011;7723;52.170;9.978;2023-09-08T11:35:24;6.03;;;3.63;;
15240;SDS011;7723;52.170;9.978;2023-09-08T11:37:53;4.80;;;3.83;;
15240;SDS011;7723;52.170;9.978;2023-09-08T11:40:27;4.78;;;3.58;;
15240;SDS011;7723;52.170;9.978;2023-09-08T11:42:54;8.48;;;3.55;;
15240;SDS011;7723;52.170;9.978;2023-09-08T11:45:22;3.75;;;3.42;;
15240;SDS011;7723;52.170;9.978;2023-09-08T11:47:51;5.03;;;3.30;;
15240;SDS011;7723;52.170;9.978;2023-09-08T11:50:19;5.00;;;3.78;;
15240;SDS011;7723;52.170;9.978;2023-09-08T11:52:47;8.38;;;3.75;;
15240;SDS011;7723;52.170;9.978;2023-09-08T11:55:15;12.43;;;4.22;;
15240;SDS011;7723;52.170;9.978;2023-09-08T11:57:45;4.85;;;3.95;;
15240;SDS011;7723;52.170;9.978;2023-09-08T12:00:17;3.58;;;3.28;;
15240;SDS011;7723;52.170;9.978;2023-09-08T12:02:48;4.25;;;3.58;;
15240;SDS011;7723;52.170;9.978;2023-09-08T12:05:20;4.68;;;3.10;;
15240;SDS011;7723;52.170;9.978;2023-09-08T12:07:48;5.53;;;3.50;;
15240;SDS011;7723;52.170;9.978;2023-09-08T12:10:16;3.92;;;3.10;;
15240;SDS011;7723;52.170;9.978;2023-09-08T12:12:47;3.42;;;3.13;;
15240;SDS011;7723;52.170;9.978;2023-09-08T12:15:31;3.67;;;3.28;;
15240;SDS011;7723;52.170;9.978;2023-09-08T12:17:59;6.75;;;3.70;;
15240;SDS011;7723;52.170;9.978;2023-09-08T12:20:27;6.03;;;3.90;;
15240;SDS011;7723;52.170;9.978;2023-09-08T12:22:54;3.45;;;2.97;;
15240;SDS011;7723;52.170;9.978;2023-09-08T12:25:23;4.05;;;3.65;;
15240;SDS011;7723;52.170;9.978;2023-09-08T12:27:52;4.28;;;3.42;;
15240;SDS011;7723;52.170;9.978;2023-09-08T12:30:19;3.50;;;3.20;;
15240;SDS011;7723;52.170;9.978;2023-09-08T12:32:55;3.90;;;3.13;;
15240;SDS011;7723;52.170;9.978;2023-09-08T12:35:24;3.80;;;3.40;;
15240;SDS011;7723;52.170;9.978;2023-09-08T12:37:52;5.40;;;3.20;;
15240;SDS011;7723;52.170;9.978;2023-09-08T12:40:23;3.78;;;3.00;;
15240;SDS011;7723;52.170;9.978;2023-09-08T12:42:51;3.28;;;2.78;;
15240;SDS011;7723;52.170;9.978;2023-09-08T12:45:19;4.60;;;3.05;;
15240;SDS011;7723;52.170;9.978;2023-09-08T12:47:48;3.65;;;3.08;;
15240;SDS011;7723;52.170;9.978;2023-09-08T12:50:15;3.17;;;2.75;;
15240;SDS011;7723;52.170;9.978;2023-09-08T12:52:42;5.00;;;2.70;;
15240;SDS011;7723;52.170;9.978;2023-09-08T12:55:09;4.38;;;2.92;;
15240;SDS011;7723;52.170;9.978;2023-09-08T12:57:37;3.33;;;2.92;;
15240;SDS011;7723;52.170;9.978;2023-09-08T13:00:06;10.20;;;3.22;;
15240;SDS011;7723;52.170;9.978;2023-09-08T13:02:33;4.53;;;3.10;;
15240;SDS011;7723;52.170;9.978;2023-09-08T13:05:01;5.15;;;2.80;;
15240;SDS011;7723;52.170;9.978;2023-09-08T13:07:28;40.60;;;5.88;;
15240;SDS011;7723;52.170;9.978;2023-09-08T13:09:55;13.45;;;3.53;;
15240;SDS011;7723;52.170;9.978;2023-09-08T13:12:23;7.30;;;3.38;;
15240;SDS011;7723;52.170;9.978;2023-09-08T13:14:50;4.30;;;2.95;;
15240;SDS011;7723;52.170;9.978;2023-09-08T13:17:18;3.15;;;2.78;;
15240;SDS011;7723;52.170;9.978;2023-09-08T13:19:45;3.22;;;2.92;;
15240;SDS011;7723;52.170;9.978;2023-09-08T13:22:13;4.00;;;3.25;;
15240;SDS011;7723;52.170;9.978;2023-09-08T13:24:40;6.70;;;2.78;;
15240;SDS011;7723;52.170;9.978;2023-09-08T13:27:07;4.53;;;2.97;;
15240;SDS011;7723;52.170;9.978;2023-09-08T13:29:34;3.63;;;2.90;;
15240;SDS011;7723;52.170;9.978;2023-09-08T13:32:03;7.38;;;3.03;;
15240;SDS011;7723;52.170;9.978;2023-09-08T13:34:32;3.90;;;2.90;;
15240;SDS011;7723;52.170;9.978;2023-09-08T13:37:00;3.75;;;3.00;;
15240;SDS011;7723;52.170;9.978;2023-09-08T13:39:27;5.65;;;3.72;;
15240;SDS011;7723;52.170;9.978;2023-09-08T13:41:55;3.65;;;3.28;;
15240;SDS011;7723;52.170;9.978;2023-09-08T13:44:23;7.45;;;3.67;;
15240;SDS011;7723;52.170;9.978;2023-09-08T13:46:51;4.10;;;2.92;;
15240;SDS011;7723;52.170;9.978;2023-09-08T13:49:20;3.55;;;2.95;;
15240;SDS011;7723;52.170;9.978;2023-09-08T13:51:49;5.10;;;3.25;;
15240;SDS011;7723;52.170;9.978;2023-09-08T13:54:18;7.22;;;3.08;;
15240;SDS011;7723;52.170;9.978;2023-09-08T13:56:45;4.85;;;3.17;;
15240;SDS011;7723;52.170;9.978;2023-09-08T13:59:25;3.72;;;3.08;;
15240;SDS011;7723;52.170;9.978;2023-09-08T14:01:53;3.90;;;3.20;;
15240;SDS011;7723;52.170;9.978;2023-09-08T14:04:20;3.47;;;2.85;;
15240;SDS011;7723;52.170;9.978;2023-09-08T14:06:49;3.60;;;3.17;;
15240;SDS011;7723;52.170;9.978;2023-09-08T14:09:16;4.03;;;3.63;;
15240;SDS011;7723;52.170;9.978;2023-09-08T14:11:43;7.00;;;3.05;;
15240;SDS011;7723;52.170;9.978;2023-09-08T14:14:10;6.25;;;2.80;;
15240;SDS011;7723;52.170;9.978;2023-09-08T14:16:38;7.00;;;3.35;;
15240;SDS011;7723;52.170;9.978;2023-09-08T14:19:05;4.68;;;3.55;;
15240;SDS011;7723;52.170;9.978;2023-09-08T14:21:32;3.53;;;3.10;;
15240;SDS011;7723;52.170;9.978;2023-09-08T14:24:00;4.50;;;3.53;;
15240;SDS011;7723;52.170;9.978;2023-09-08T14:26:27;4.72;;;3.33;;
15240;SDS011;7723;52.170;9.978;2023-09-08T14:28:54;6.00;;;3.40;;
15240;SDS011;7723;52.170;9.978;2023-09-08T14:31:21;5.55;;;3.35;;
15240;SDS011;7723;52.170;9.978;2023-09-08T14:33:49;4.65;;;3.45;;
15240;SDS011;7723;52.170;9.978;2023-09-08T14:36:16;3.42;;;3.13;;
15240;SDS011;7723;52.170;9.978;2023-09-08T14:38:44;3.22;;;2.92;;
15240;SDS011;7723;52.170;9.978;2023-09-08T14:41:13;4.53;;;3.28;;
15240;SDS011;7723;52.170;9.978;2023-09-08T14:43:40;4.90;;;3.25;;
15240;SDS011;7723;52.170;9.978;2023-09-08T14:46:07;3.97;;;3.35;;
15240;SDS011;7723;52.170;9.978;2023-09-08T14:48:34;4.55;;;3.35;;
15240;SDS011;7723;52.170;9.978;2023-09-08T14:51:02;3.75;;;3.25;;
15240;SDS011;7723;52.170;9.978;2023-09-08T14:53:30;4.40;;;3.35;;
15240;SDS011;7723;52.170;9.978;2023-09-08T14:55:57;4.47;;;3.50;;
15240;SDS011;7723;52.170;9.978;2023-09-08T14:58:26;4.88;;;3.58;;
15240;SDS011;7723;52.170;9.978;2023-09-08T15:00:59;4.78;;;3.17;;
15240;SDS011;7723;52.170;9.978;2023-09-08T15:03:28;4.75;;;3.33;;
15240;SDS011;7723;52.170;9.978;2023-09-08T15:05:57;5.05;;;3.22;;